East Sutton Ridge, Vermont
Current Conditions -  °F | °C
As of 11:15 PM on Saturday 22 Nov 2014 (Local Time) from KCDA Reporting Station
Overcast Overcast  
Wind Chill:   Ceiling: 2000
Heat Index:   Visibility: 10mi
Dew Point: -6°   Wind: 3mph
Humidity: 61%   Direction: 140°SE
Pressure: 29.94"   Gusts: NA
Location:  44.6632°N, 72.0391°W
Report Text: KCDA 230415Z AUTO 14003KT 10SM OVC020 01/M06 A2994 RMK AO2 T00111057
Loading
Personal Weather Stations






























Interactive Weather Map New forecast layout! Learn more

10-Day Weather Forecast

Advertisements
Track Severe Weather on mobile